WetterOnline ( https://www.wetteronline.ch )

Wetter aktuell Traunstein

Aktuelles Wetter: Chieming (553m)

6-stündlich | Neueste Meldungen
Ortszeit Temperatur Wetter
Fr, 06.12. 13:00 3.9° C leicht bewölkt
Fr, 06.12. 7:00 -6.4° C leicht bewölkt
Fr, 06.12. 1:00 -4.5° C Nebel
Do, 05.12. 19:00 -2.0° C wolkenlos
Do, 05.12. 13:00 5.0° C leicht bewölkt
Do, 05.12. 7:00 -4.0° C wolkig
Do, 05.12. 1:00 -2.6° C wolkig
Mi, 04.12. 19:00 -1.8° C wolkenlos
Ortszeit Temperatur Wetter
Fr, 06.12. 18:00 -0.1° C wolkenlos
Fr, 06.12. 17:50 -0.1° C wolkenlos
Fr, 06.12. 17:40 0.5° C wolkenlos
Fr, 06.12. 17:30 2.2° C wolkenlos
Fr, 06.12. 17:20 2.2° C wolkenlos
Fr, 06.12. 17:10 1.6° C fast wolkenlos
Fr, 06.12. 17:00 2.5° C leicht bewölkt
Fr, 06.12. 16:30 4.6° C wolkenlos
Fr, 06.12. 16:00 4.9° C leicht bewölkt
Fr, 06.12. 15:30 4.9° C leicht bewölkt
Fr, 06.12. 15:00 5.7° C leicht bewölkt
Fr, 06.12. 14:30 4.9° C wolkig
Ortszeit Relative Feuchte Sichtweite
Fr, 06.12. 13:00 74% 19 km
Fr, 06.12. 7:00 95% 9 km
Fr, 06.12. 1:00 100% 0.2 km
Do, 05.12. 19:00 97% 4.8 km
Do, 05.12. 13:00 71% 14 km
Do, 05.12. 7:00 99% 6 km
Do, 05.12. 1:00 99% 9 km
Mi, 04.12. 19:00 89% 18 km
Ortszeit Relative Feuchte Sichtweite
Fr, 06.12. 18:00 96% 16 km
Fr, 06.12. 17:50 96% -
Fr, 06.12. 17:40 96% -
Fr, 06.12. 17:30 93% 30 km
Fr, 06.12. 17:20 93% -
Fr, 06.12. 17:10 88% -
Fr, 06.12. 17:00 90% 30 km
Fr, 06.12. 16:30 81% 21 km
Fr, 06.12. 16:00 80% 20 km
Fr, 06.12. 15:30 83% 17 km
Fr, 06.12. 15:00 78% 15 km
Fr, 06.12. 14:30 79% 15 km
Ortszeit Niederschlagsmenge Niederschlagsart
Fr, 06.12. 13:00 0.0 l/m2 in 6 Std. -
Fr, 06.12. 7:00 0.0 l/m2 in 12 Std. -
Fr, 06.12. 1:00 0.0 l/m2 in 6 Std. -
Do, 05.12. 19:00 0.0 l/m2 in 12 Std. -
Do, 05.12. 13:00 0.0 l/m2 in 6 Std. -
Do, 05.12. 7:00 0.0 l/m2 in 12 Std. -
Do, 05.12. 1:00 0.0 l/m2 in 6 Std. -
Mi, 04.12. 19:00 0.0 l/m2 in 12 Std. -
Ortszeit Niederschlagsmenge Niederschlagsart
Fr, 06.12. 18:00 0.0 l/m2 in 1 Std. -
Fr, 06.12. 17:50 keine Meldung -
Fr, 06.12. 17:40 keine Meldung -
Fr, 06.12. 17:30 0.0 l/m2 in 1 Std. -
Fr, 06.12. 17:20 keine Meldung -
Fr, 06.12. 17:10 keine Meldung -
Fr, 06.12. 17:00 0.0 l/m2 in 1 Std. -
Fr, 06.12. 16:30 0.0 l/m2 in 1 Std. -
Fr, 06.12. 16:00 0.0 l/m2 in 1 Std. -
Fr, 06.12. 15:30 0.0 l/m2 in 1 Std. -
Fr, 06.12. 15:00 0.0 l/m2 in 1 Std. -
Fr, 06.12. 14:30 0.0 l/m2 in 1 Std. -
Ortszeit Stärke Spitze Richtung
km/h Bft. km/h Grad Sektor
Fr, 06.12. 13:00 2 1 13 310° NW
Fr, 06.12. 7:00 6 1 11 50° NO
Fr, 06.12. 1:00 7 2 11 90° O
Do, 05.12. 19:00 9 2 17 60° NO
Do, 05.12. 13:00 6 1 9 40° NO
Do, 05.12. 7:00 6 1 11 90° O
Do, 05.12. 1:00 7 2 17 170° S
Mi, 04.12. 19:00 13 3 17 80° O
Ortszeit Stärke Spitze Richtung
km/h Bft. km/h Grad Sektor
Fr, 06.12. 18:00 6 1 11 150° SO
Fr, 06.12. 17:50 6 1 - 150° SO
Fr, 06.12. 17:40 6 1 - 120° SO
Fr, 06.12. 17:30 4 1 11 100° O
Fr, 06.12. 17:20 4 1 - 100° O
Fr, 06.12. 17:10 6 1 - 160° S
Fr, 06.12. 17:00 4 1 7 100° O
Fr, 06.12. 16:30 4 1 7 190° S
Fr, 06.12. 16:00 7 2 11 190° S
Fr, 06.12. 15:30 7 2 11 210° SW
Fr, 06.12. 15:00 4 1 11 250° W
Fr, 06.12. 14:30 6 1 9 290° W
Ortszeit Untergrenze Bedeckung Gattung
total tief tief mittel hoch
Fr, 06.12. 13:00 8100 m 7/8 0/8 - - -
Fr, 06.12. 7:00 7800 m 5/8 0/8 - - -
Fr, 06.12. 1:00 <30 m 6/8 0/8 - - -
Do, 05.12. 19:00 - 0/8 0/8 - - -
Do, 05.12. 13:00 9000 m 7/8 0/8 - - -
Do, 05.12. 7:00 10500 m 7/8 0/8 - - -
Do, 05.12. 1:00 10500 m 8/8 0/8 - - -
Mi, 04.12. 19:00 - 0/8 0/8 - - -
Ortszeit Bedeckungsgrad in Achtel und Wolkenuntergrenze
Fr, 06.12. 18:00 keine Wolken
Fr, 06.12. 17:50 keine Wolken
Fr, 06.12. 17:40 keine Wolken
Fr, 06.12. 17:30 keine Wolken
Fr, 06.12. 17:20 keine Wolken
Fr, 06.12. 17:10 1(7500m) 1(8400m)
Fr, 06.12. 17:00 1(7500m) 3(8400m)
Fr, 06.12. 16:30 keine Wolken
Fr, 06.12. 16:00 5(7500m) 6(8100m)
Fr, 06.12. 15:30 4(7200m)
Fr, 06.12. 15:00 8(7500m)
Fr, 06.12. 14:30 8(7500m) 8(8100m)
Ortszeit Luftdruck NN (hPa) Tendenz (hPa in 3 Std.)
Fr, 06.12. 13:00 1021 - 1,4
Fr, 06.12. 7:00 1026 - 0,1
Fr, 06.12. 1:00 1025 - 1,1
Do, 05.12. 19:00 1026 + 1,2
Do, 05.12. 13:00 1023 - 1,1
Do, 05.12. 7:00 1025 + 1,0
Do, 05.12. 1:00 1023 + 0,6
Mi, 04.12. 19:00 1023 - 0,4
Ortszeit Luftdruck NN (hPa) Tendenz (hPa in 3 Std.)
Fr, 06.12. 18:00 1020 - 0,5
Fr, 06.12. 17:50 1020 keine Meldung
Fr, 06.12. 17:40 1020 keine Meldung
Fr, 06.12. 17:30 1019 - 0,8
Fr, 06.12. 17:20 1019 keine Meldung
Fr, 06.12. 17:10 1019 keine Meldung
Fr, 06.12. 17:00 1019 - 1,1
Fr, 06.12. 16:30 1018 - 1,5
Fr, 06.12. 16:00 1019 - 1,9
Fr, 06.12. 15:30 1019 - 1,9
Fr, 06.12. 15:00 1019 - 2,1
Fr, 06.12. 14:30 1019 - 2,1
Ortszeit Schneehöhe (cm)
Fr, 06.12. 13:00 0
Fr, 06.12. 7:00 0
Fr, 06.12. 1:00 0
Do, 05.12. 19:00 0
Do, 05.12. 13:00 0
Do, 05.12. 7:00 0
Do, 05.12. 1:00 0
Mi, 04.12. 19:00 0
Ortszeit Schneehöhe (cm)
Fr, 06.12. 18:00 0
Fr, 06.12. 17:50 0
Fr, 06.12. 17:40 0
Fr, 06.12. 17:30 0
Fr, 06.12. 17:20 0
Fr, 06.12. 17:10 0
Fr, 06.12. 17:00 0
Fr, 06.12. 16:30 0
Fr, 06.12. 16:00 0
Fr, 06.12. 15:30 0
Fr, 06.12. 15:00 0
Fr, 06.12. 14:30 0
Link zu dieser Seite / Seite empfehlen

Das Wetter in ...